»·PEaware :: JBU236 KBUF-KMDW

JBU236 :: KBUF-KMDW

FLIGHT INFORMATION

Flight Status: Arrived
Operator:
JetBlue Airways
More flights by this operator :: More flights under this callsign
Pilot: Kenny J. (11300)
Aircraft: AIRBUS A320
(A320)
More flights by this aircraft type
Origin: KBUF Buffalo Niagara Intl
United States
Destination: KMDW Chicago-Midway
United States
More flights between these airports :: More routes between these airports
Route: BUF DCT CRL DCT LFD PANGG3
File this flight plan on PilotEdge
Remarks:
Altitude:
(Current/Filed)
32,000ft
Speed:
(Current/Filed)
310kts
Departed: 12-Feb-17 05:56 AM
Arrived: 12-Feb-17 07:15 AM
Distance/Time
Traveled:
406nm/1:19
Distance/Time
To Go:
Arrived

Flight Plot

Page will automatically refresh every two minutes.

Flight plan parsing failed; only flown route is shown


Map Options




Map Legend


Flown Route
Filed Route
Departure Airport
Arrival Airport
Navaid (VOR, NDB)
Fix

Horizontal Profiles

Position Reports

Time Latitude Longitude Heading Altitude Ground
Speed
12-Feb-17 05:30 42.935807 -78.731453 144 738ft 0kts
12-Feb-17 05:31 42.935807 -78.731453 144 738ft 0kts
12-Feb-17 05:32 42.935807 -78.731453 144 738ft 0kts
12-Feb-17 05:33 42.935807 -78.731453 144 738ft 0kts
12-Feb-17 05:34 42.935807 -78.731453 144 738ft 0kts
12-Feb-17 05:35 42.935807 -78.731453 144 738ft 0kts
12-Feb-17 05:36 42.935807 -78.731453 144 738ft 0kts
12-Feb-17 05:37 42.935807 -78.731453 144 738ft 0kts
12-Feb-17 05:38 42.935807 -78.731453 144 738ft 0kts
12-Feb-17 05:39 42.935807 -78.731453 144 738ft 0kts
12-Feb-17 05:40 42.935807 -78.731453 144 738ft 0kts
12-Feb-17 05:41 42.935807 -78.731453 144 738ft 0kts
12-Feb-17 05:42 42.935807 -78.731453 144 738ft 0kts
12-Feb-17 05:43 42.935807 -78.731453 144 738ft 0kts
12-Feb-17 05:44 42.935807 -78.731453 144 738ft 0kts
12-Feb-17 05:45 42.935807 -78.731453 144 738ft 0kts
12-Feb-17 05:46 42.935807 -78.731453 144 738ft 0kts
12-Feb-17 05:47 42.935889 -78.731531 144 738ft 2kts
12-Feb-17 05:48 42.936397 -78.732013 144 738ft 0kts
12-Feb-17 05:49 42.936397 -78.732013 144 738ft 0kts
12-Feb-17 05:50 42.936397 -78.732013 144 738ft 0kts
12-Feb-17 05:51 42.936396 -78.732013 144 738ft 0kts
12-Feb-17 05:52 42.936396 -78.732012 144 738ft 0kts
12-Feb-17 05:53 42.939467 -78.729321 45 738ft 36kts
12-Feb-17 05:54 42.945631 -78.720739 45 738ft 34kts
12-Feb-17 05:55 42.948284 -78.718859 262 738ft 0kts
12-Feb-17 05:56 42.946659 -78.721407 225 738ft 64kts
12-Feb-17 05:57 42.918855 -78.756880 227 2517ft 153kts
12-Feb-17 05:58 42.879905 -78.797131 183 3679ft 225kts
12-Feb-17 05:59 42.863710 -78.721038 36 5477ft 273kts
12-Feb-17 06:00 42.929759 -78.673369 353 8089ft 265kts
12-Feb-17 06:01 42.968770 -78.739352 262 10366ft 263kts
12-Feb-17 06:02 42.906265 -78.814111 229 11209ft 335kts
12-Feb-17 06:03 42.883072 -78.931487 260 13355ft 329kts
12-Feb-17 06:04 42.862783 -79.055148 258 15309ft 340kts
12-Feb-17 06:05 42.841836 -79.183198 258 17120ft 350kts
12-Feb-17 06:06 42.820030 -79.314694 258 18846ft 359kts
12-Feb-17 06:07 42.797687 -79.448859 258 20443ft 368kts
12-Feb-17 06:08 42.774576 -79.586194 258 21903ft 376kts
12-Feb-17 06:09 42.751942 -79.719901 258 23191ft 383kts
12-Feb-17 06:10 42.727693 -79.862003 258 24449ft 389kts
12-Feb-17 06:11 42.702726 -80.006981 258 25553ft 398kts
12-Feb-17 06:12 42.676997 -80.155173 258 26580ft 406kts
12-Feb-17 06:13 42.650628 -80.305773 258 27570ft 414kts
12-Feb-17 06:14 42.623693 -80.458396 257 28536ft 420kts
12-Feb-17 06:15 42.596249 -80.612481 257 29768ft 418kts
12-Feb-17 06:16 42.568829 -80.765457 257 30872ft 417kts
12-Feb-17 06:17 42.541104 -80.918594 257 31740ft 417kts
12-Feb-17 06:18 42.513326 -81.071010 257 31728ft 417kts
12-Feb-17 06:19 42.485332 -81.223124 257 31739ft 417kts
12-Feb-17 06:20 42.457057 -81.375448 258 31790ft 417kts
12-Feb-17 06:21 42.428558 -81.528089 258 31803ft 417kts
12-Feb-17 06:22 42.399983 -81.679787 258 31790ft 416kts
12-Feb-17 06:23 42.371234 -81.831097 258 31772ft 416kts
12-Feb-17 06:24 42.342371 -81.981961 258 31802ft 414kts
12-Feb-17 06:25 42.313208 -82.133038 258 31745ft 414kts
12-Feb-17 06:26 42.284000 -82.283319 258 31757ft 414kts
12-Feb-17 06:27 42.254519 -82.434016 257 31808ft 416kts
12-Feb-17 06:28 42.224703 -82.584922 257 31866ft 417kts
12-Feb-17 06:29 42.194645 -82.736127 257 31870ft 415kts
12-Feb-17 06:30 42.164722 -82.885546 258 31805ft 414kts
12-Feb-17 06:31 42.134454 -83.035571 258 31790ft 413kts
12-Feb-17 06:32 42.104065 -83.184939 258 31832ft 414kts
12-Feb-17 06:33 42.073527 -83.334047 258 31889ft 413kts
12-Feb-17 06:34 42.048184 -83.483611 270 31895ft 405kts
12-Feb-17 06:35 42.051122 -83.634181 273 31856ft 403kts
12-Feb-17 06:36 42.053007 -83.785222 273 31810ft 402kts
12-Feb-17 06:37 42.055083 -83.935627 273 31820ft 401kts
12-Feb-17 06:38 42.056864 -84.085941 273 31885ft 402kts
12-Feb-17 06:39 42.058464 -84.236248 273 31916ft 403kts
12-Feb-17 06:40 42.059882 -84.387335 273 31907ft 403kts
12-Feb-17 06:41 42.061054 -84.537132 273 31871ft 402kts
12-Feb-17 06:42 42.061690 -84.688374 270 31860ft 404kts
12-Feb-17 06:43 42.021597 -84.831025 237 31846ft 428kts
12-Feb-17 06:44 41.943046 -84.951889 236 31940ft 429kts
12-Feb-17 06:45 41.866001 -85.073120 236 31943ft 426kts
12-Feb-17 06:46 41.788719 -85.193168 236 31868ft 424kts
12-Feb-17 06:47 41.711608 -85.312623 236 30990ft 421kts
12-Feb-17 06:48 41.635505 -85.430070 236 30058ft 415kts
12-Feb-17 06:49 41.560515 -85.545353 236 29125ft 408kts
12-Feb-17 06:50 41.516370 -85.673698 273 27852ft 368kts
12-Feb-17 06:51 41.520272 -85.807143 276 25922ft 355kts
12-Feb-17 06:52 41.522519 -85.937030 276 24061ft 343kts
12-Feb-17 06:53 41.524852 -86.061951 276 22290ft 331kts
12-Feb-17 06:54 41.524561 -86.183196 274 20568ft 321kts
12-Feb-17 06:55 41.523978 -86.301091 274 18880ft 313kts
12-Feb-17 06:56 41.523297 -86.415351 274 17332ft 306kts
12-Feb-17 06:57 41.522511 -86.529120 273 15757ft 303kts
12-Feb-17 06:58 41.521965 -86.596729 273 14731ft 296kts
12-Feb-17 06:59 41.520674 -86.747547 273 12606ft 286kts
12-Feb-17 07:00 41.519679 -86.854100 273 11038ft 292kts
12-Feb-17 07:01 41.518463 -86.955285 274 10124ft 245kts
12-Feb-17 07:02 41.517546 -87.043137 273 9485ft 252kts
12-Feb-17 07:03 41.516381 -87.135018 274 8365ft 242kts
12-Feb-17 07:04 41.534588 -87.221239 294 7273ft 227kts
12-Feb-17 07:05 41.556376 -87.295758 293 6318ft 208kts
12-Feb-17 07:06 41.577257 -87.366142 293 4974ft 204kts
12-Feb-17 07:07 41.597950 -87.437156 292 3573ft 199kts
12-Feb-17 07:08 41.614383 -87.493552 291 2690ft 192kts
12-Feb-17 07:09 41.648708 -87.560820 312 2501ft 197kts
12-Feb-17 07:10 41.676883 -87.600151 311 2501ft 167kts
12-Feb-17 07:11 41.710501 -87.647254 309 2511ft 114kts
12-Feb-17 07:12 41.732858 -87.678636 312 2005ft 118kts
12-Feb-17 07:13 41.755818 -87.710853 310 1355ft 119kts
12-Feb-17 07:14 41.779112 -87.743580 310 681ft 123kts
12-Feb-17 07:15 41.790376 -87.759280 316 634ft 6kts
12-Feb-17 07:16 41.791462 -87.760120 62 634ft 0kts
12-Feb-17 07:17 41.791462 -87.760119 62 634ft 0kts
12-Feb-17 07:18 41.791462 -87.760118 62 634ft 0kts
12-Feb-17 07:19 41.791463 -87.760118 62 634ft 0kts
12-Feb-17 07:20 41.791463 -87.760117 62 634ft 0kts
12-Feb-17 07:21 41.791463 -87.760116 62 634ft 0kts
12-Feb-17 07:22 41.791464 -87.760115 62 634ft 0kts
12-Feb-17 07:23 41.791464 -87.760114 62 634ft 0kts
12-Feb-17 07:24 41.791465 -87.760113 62 634ft 0kts
12-Feb-17 07:25 41.791465 -87.760112 62 634ft 0kts
12-Feb-17 07:26 41.791465 -87.760111 62 634ft 0kts
12-Feb-17 07:27 41.791466 -87.760110 62 634ft 0kts
12-Feb-17 07:28 41.791466 -87.760109 62 634ft 0kts
12-Feb-17 07:29 41.791466 -87.760108 62 634ft 0kts

Navigation Log

Ident Type
Flight plan parsing failed, navigation log unavailable